FW2258 Weather Reports


Display with metric or nautical units.
time (UTC)temp
F
wind
direction
speed
MPH
gust
MPH
rain 1hr
in
rain 24hr
in
rain mn
in
humidity
%
barometer
mb
20200330230151 72 284 0.0 4.0 0.00 0.00 0.00 81 1015.5
20200330224604 70 284 0.0 1.0 0.00 0.00 0.00 86 1015.4
20200330223058 68 284 0.0 1.0 0.00 0.00 0.00 87 1015.4
20200330221532 65 284 0.0 0.0 0.00 0.00 0.00 95 1015.2
20200330220056 63 284 0.0 1.0 0.00 0.00 0.00 96 1015.0
20200330214538 63 284 0.0 1.0 0.00 0.02 0.00 96 1014.9
20200330213114 62 284 0.0 0.0 0.00 0.02 0.00 95 1014.7
20200330211543 62 284 0.0 0.0 0.00 0.02 0.00 95 1014.6
20200330210018 62 284 0.0 1.0 0.00 0.03 0.00 95 1014.5
20200330204529 62 284 0.0 0.0 0.00 0.03 0.00 95 1014.4
20200330203039 62 284 0.0 0.0 0.00 0.03 0.00 94 1014.0
20200330201531 62 284 0.0 0.0 0.00 0.03 0.00 94 1013.8
20200330200014 62 284 0.0 0.0 0.00 0.03 0.00 94 1013.5
20200330194512 63 284 0.0 0.0 0.00 0.03 0.00 93 1013.4
20200330193015 64 284 0.0 0.0 0.00 0.03 0.00 93 1013.3
20200330191537 64 284 0.0 0.0 0.00 0.03 0.00 93 1013.1
20200330190008 64 284 0.0 0.0 0.00 0.04 0.00 93 1013.0
20200330184519 64 284 0.0 0.0 0.00 0.04 0.00 93 1012.9
20200330183016 64 284 0.0 0.0 0.00 0.04 0.00 93 1012.8
20200330181516 64 284 0.0 0.0 0.00 0.04 0.00 93 1012.6
20200330180006 64 284 0.0 0.0 0.00 0.04 0.00 93 1012.4
20200330174505 64 284 0.0 0.0 0.00 0.04 0.00 93 1012.4
20200330173011 64 284 0.0 0.0 0.00 0.04 0.00 93 1012.4
20200330171507 64 284 0.0 0.0 0.00 0.04 0.00 93 1012.4
20200330170004 64 284 0.0 0.0 0.00 0.04 0.00 93 1012.3
20200330164510 64 284 0.0 0.0 0.00 0.04 0.00 93 1012.3
20200330163006 64 284 0.0 0.0 0.00 0.04 0.00 93 1012.2
20200330161620 64 284 0.0 0.0 0.00 0.04 0.00 93 1012.3
20200330160148 64 284 0.0 0.0 0.00 0.04 0.00 93 1012.3
20200330154623 64 284 0.0 0.0 0.00 0.04 0.00 92 1012.2
20200330153248 64 284 0.0 0.0 0.00 0.04 0.00 91 1012.3
20200330151746 65 284 0.0 0.0 0.00 0.04 0.00 90 1012.3
20200330150217 65 284 0.0 0.0 0.00 0.04 0.00 90 1012.4
20200330144641 65 284 0.0 0.0 0.00 0.04 0.00 90 1012.2
20200330143143 65 284 0.0 0.0 0.00 0.04 0.00 89 1012.2
20200330141636 66 284 0.0 0.0 0.00 0.04 0.00 89 1012.1
20200330140107 65 284 0.0 1.0 0.00 0.04 0.00 89 1011.8
20200330134556 66 284 0.0 2.0 0.00 0.04 0.04 89 1011.7
20200330133216 66 284 0.0 1.0 0.00 0.04 0.04 89 1011.7
20200330131612 66 284 0.0 2.0 0.00 0.04 0.04 89 1011.6
20200330130223 66 284 0.0 2.0 0.00 0.04 0.04 89 1011.5
20200330124604 66 284 0.0 2.0 0.00 0.04 0.04 89 1011.6
20200330123112 66 284 0.0 1.0 0.00 0.04 0.04 89 1011.4
20200330121602 67 284 0.0 3.0 0.00 0.04 0.04 89 1011.4
20200330120109 67 284 0.0 5.0 0.00 0.04 0.04 88 1011.4
20200330114643 67 284 0.0 2.0 0.00 0.04 0.04 88 1011.4
20200330113216 68 284 0.0 0.0 0.00 0.04 0.04 88 1011.3
20200330111647 68 284 0.0 2.0 0.00 0.04 0.04 87 1011.3
20200330110108 69 284 0.0 0.0 0.00 0.04 0.04 86 1011.1
20200330104558 69 284 0.0 0.0 0.00 0.04 0.04 85 1011.1
20200330103100 70 284 0.0 0.0 0.00 0.04 0.04 84 1011.1
20200330101601 70 284 0.0 0.0 0.00 0.04 0.04 84 1011.3
20200330100116 71 284 0.0 0.0 0.00 0.04 0.04 83 1011.2
20200330094635 71 284 0.0 1.0 0.00 0.04 0.04 82 1011.1
20200330093121 71 284 0.0 0.0 0.00 0.04 0.04 81 1011.1
20200330091633 72 284 0.0 0.0 0.00 0.04 0.04 81 1011.0
20200330090110 72 284 0.0 0.0 0.00 0.04 0.04 80 1010.9
20200330084615 72 284 0.0 0.0 0.00 0.04 0.04 79 1010.5
20200330083129 72 284 0.0 0.0 0.00 0.04 0.04 79 1010.3
20200330081657 73 284 0.0 0.0 0.00 0.04 0.04 78 1010.3
20200330080147 73 284 0.0 0.0 0.00 0.04 0.04 78 1010.2
20200330074636 74 284 0.0 0.0 0.00 0.04 0.04 77 1010.2
20200330073118 74 284 0.0 0.0 0.00 0.04 0.04 77 1010.3
20200330071634 74 284 0.0 0.0 0.00 0.04 0.04 77 1010.1
20200330070156 74 284 0.0 0.0 0.00 0.04 0.04 76 1010.1
20200330064609 75 284 0.0 4.0 0.00 0.04 0.04 75 1010.0
20200330063114 75 284 0.0 3.0 0.00 0.04 0.04 75 1009.9
20200330061555 76 284 1.0 4.0 0.00 0.04 0.04 72 1009.8
20200330060045 76 260 0.0 1.0 0.00 0.04 0.04 75 1010.0
20200330054746 76 261 0.0 6.0 0.00 0.04 0.04 72 1010.2
20200330053138 76 252 1.0 5.0 0.00 0.04 0.04 71 1010.0
20200330051732 76 251 2.0 6.0 0.00 0.04 0.04 71 1010.2
20200330050230 76 259 0.0 4.0 0.00 0.04 0.04 70 1010.4
20200330043044 76 256 1.0 7.0 0.00 0.04 0.04 70 1010.3
20200330041547 77 345 1.0 5.0 0.00 0.04 0.04 71 1009.9
20200330040051 74 58 3.0 6.0 0.00 0.04 0.04 75 1009.9
20200330034528 74 344 0.0 7.0 0.00 0.04 0.04 76 1010.3
20200330033119 74 346 0.0 4.0 0.00 0.04 0.04 78 1010.7
20200330031621 73 315 0.0 7.0 0.00 0.04 0.04 79 1010.9
20200330030050 72 323 0.0 5.0 0.00 0.04 0.04 82 1010.9
20200330024541 71 321 0.0 4.0 0.00 0.04 0.04 82 1011.1
20200330023032 71 247 0.0 2.0 0.00 0.04 0.04 84 1011.4
20200330021545 71 294 0.0 4.0 0.00 0.04 0.04 84 1011.5
20200330020022 70 294 0.0 4.0 0.00 0.04 0.04 84 1011.9
20200330014517 70 265 0.0 6.0 0.00 0.04 0.04 85 1011.9
20200330013017 70 280 1.0 6.0 0.00 0.04 0.04 86 1012.0
20200330011519 70 321 0.0 4.0 0.00 0.04 0.04 87 1011.9
20200330010035 69 346 0.0 11.0 0.00 0.04 0.04 88 1012.0
20200330004509 69 33 1.0 6.0 0.00 0.04 0.04 89 1012.2
20200330003004 68 14 1.0 9.0 0.00 0.04 0.04 92 1012.3
20200330001638 68 337 1.0 4.0 0.00 0.04 0.04 94 1012.4
20200330000145 68 10 0.0 5.0 0.00 0.04 0.04 95 1012.4
20200329234637 67 338 2.0 6.0 0.00 0.05 0.04 96 1012.5
20200329233221 67 360 1.0 7.0 0.00 0.05 0.04 96 1012.7
20200329231637 67 257 0.0 4.0 0.00 0.05 0.04 97 1012.8